Terminal Aerodrome Forecast
Issued by NWS

Home | Current Version | Previous Version | Text Only | Print | Product List | Glossary On
Versions: 1 2 3 4 5 6 7 8 9 10 11 12 13 14 15 16 17 18 19 20 21 22 23 24 25
128
FTUS44 KEWX 290526
TAFSSF
TAF
KSSF 290526Z 2906/3006 VRB02KT P6SM BKN200
     FM290800 12002KT P6SM BKN012
     FM291000 11002KT P6SM BKN009
     FM291500 17006KT P6SM BKN020
     FM291700 14008KT P6SM SCT040=

USA.gov is the U.S. government's official web portal to all federal, state and local government web resources and services.